Time;durP1;ratioP1;P1;durP2;ratioP2;P2;SDS_P1;SDS_P2;PMS_P1;PMS_P2;Temp;Humidity;BMP_temperature;BMP_pressure;BME280_temperature;BME280_humidity;BME280_pressure;Samples;Min_cycle;Max_cycle;Signal;HPM_P1;HPM_P2
2023/11/26 00:00:50;;;;;;;1.48;1.27;;;20.90;35.70;21.60;101935.00;;;;5017893;28;20045;-44
2023/11/26 00:03:16;;;;;;;3.80;1.58;;;20.90;35.70;21.60;101933.00;;;;5017595;28;20074;-44
2023/11/26 00:05:42;;;;;;;2.15;1.58;;;20.80;35.70;21.60;101932.00;;;;5016711;28;20038;-44
2023/11/26 00:08:08;;;;;;;1.17;1.00;;;20.80;35.60;21.60;101937.00;;;;5018998;28;20033;-42
2023/11/26 00:10:35;;;;;;;4.35;1.25;;;20.80;35.70;21.60;101928.00;;;;5019985;28;20045;-42
2023/11/26 00:13:00;;;;;;;2.25;1.70;;;20.80;35.70;21.60;101946.00;;;;5018373;28;20116;-42
2023/11/26 00:15:27;;;;;;;2.25;1.35;;;20.80;35.60;21.60;101936.00;;;;5018613;28;20045;-43
2023/11/26 00:17:53;;;;;;;4.53;1.65;;;20.80;35.60;21.50;101939.00;;;;5017635;28;20029;-42
2023/11/26 00:20:19;;;;;;;1.27;0.88;;;20.80;35.60;21.50;101934.00;;;;5017645;28;20043;-42
2023/11/26 00:22:45;;;;;;;4.35;2.40;;;20.80;35.60;21.50;101935.00;;;;5018363;28;20156;-42
2023/11/26 00:25:11;;;;;;;1.27;1.10;;;20.80;35.70;21.50;101938.00;;;;5017875;28;20108;-42
2023/11/26 00:27:37;;;;;;;2.45;1.17;;;20.80;35.60;21.50;101936.00;;;;5017984;28;20436;-42
2023/11/26 00:30:04;;;;;;;1.83;0.95;;;20.80;35.60;21.50;101940.00;;;;5016908;28;20041;-46
2023/11/26 00:32:31;;;;;;;3.42;1.02;;;20.80;35.60;21.50;101934.00;;;;5017937;28;20046;-44
2023/11/26 00:34:57;;;;;;;2.45;1.30;;;20.80;35.70;21.50;101933.00;;;;5017962;28;20057;-45
2023/11/26 00:37:25;;;;;;;2.58;1.10;;;20.80;35.60;21.50;101926.00;;;;5016732;28;20041;-44
2023/11/26 00:39:51;;;;;;;3.80;1.33;;;20.70;35.50;21.50;101925.00;;;;5017545;28;20029;-44
2023/11/26 00:42:35;;;;;;;3.20;0.70;;;20.70;35.60;21.50;101921.00;;;;5017850;28;20091;-44
2023/11/26 00:45:01;;;;;;;3.40;1.38;;;20.80;35.70;21.50;101926.00;;;;5017155;28;20081;-43
2023/11/26 00:47:27;;;;;;;3.28;0.75;;;20.80;35.70;21.50;101921.00;;;;5017270;28;20076;-43
2023/11/26 00:49:58;;;;;;;1.88;1.00;;;20.70;35.70;21.50;101917.00;;;;5017068;28;20381;-45
2023/11/26 00:52:24;;;;;;;2.60;0.98;;;20.70;35.60;21.50;101920.00;;;;5007705;28;20045;-44
2023/11/26 00:54:50;;;;;;;1.67;0.70;;;20.70;35.70;21.50;101925.00;;;;5016453;28;20046;-43
2023/11/26 00:57:17;;;;;;;3.13;1.30;;;20.70;35.70;21.50;101914.00;;;;5016078;28;20509;-43
2023/11/26 00:59:43;;;;;;;1.13;0.75;;;20.70;35.60;21.50;101914.00;;;;5016804;28;20061;-46
2023/11/26 01:02:10;;;;;;;3.00;1.45;;;20.70;35.60;21.50;101914.00;;;;5000819;28;20064;-44
2023/11/26 01:04:36;;;;;;;2.20;0.73;;;20.70;35.70;21.50;101916.00;;;;5016240;28;20458;-46
2023/11/26 01:07:02;;;;;;;2.42;1.27;;;20.70;35.70;21.50;101922.00;;;;5017367;28;20069;-44
2023/11/26 01:09:28;;;;;;;2.75;1.00;;;20.70;35.70;21.40;101919.00;;;;4992165;28;20030;-45
2023/11/26 01:11:54;;;;;;;1.17;0.63;;;20.70;35.70;21.40;101920.00;;;;5008388;28;20363;-43
2023/11/26 01:14:20;;;;;;;1.83;0.93;;;20.70;35.70;21.40;101916.00;;;;5016431;28;20045;-44
2023/11/26 01:16:49;;;;;;;5.18;1.52;;;20.70;35.70;21.40;101917.00;;;;5016817;28;20029;-44
2023/11/26 01:19:15;;;;;;;1.40;1.15;;;20.70;35.70;21.40;101913.00;;;;5016214;28;20553;-44
2023/11/26 01:21:41;;;;;;;1.60;0.75;;;20.70;35.70;21.40;101909.00;;;;5007306;28;20430;-47
2023/11/26 01:24:07;;;;;;;2.95;0.80;;;20.70;36.30;21.40;101910.00;;;;5016183;28;20053;-44
2023/11/26 01:26:33;;;;;;;1.10;1.02;;;20.70;35.70;21.40;101914.00;;;;5016243;28;20502;-44
2023/11/26 01:28:59;;;;;;;3.33;0.73;;;20.70;35.70;21.40;101907.00;;;;5016750;28;20026;-44
2023/11/26 01:31:25;;;;;;;1.42;1.17;;;20.60;35.70;21.40;101914.00;;;;5017442;28;20219;-44
2023/11/26 01:33:52;;;;;;;1.98;1.45;;;20.60;35.80;21.40;101916.00;;;;5015553;28;20049;-44
2023/11/26 01:36:18;;;;;;;1.05;0.50;;;20.60;35.70;21.40;101914.00;;;;4999456;28;20045;-45
2023/11/26 01:38:44;;;;;;;1.00;0.50;;;20.60;35.70;21.40;101915.00;;;;5016360;28;20041;-44
2023/11/26 01:41:10;;;;;;;1.58;0.70;;;20.60;35.80;21.40;101907.00;;;;5017082;28;20168;-44
2023/11/26 01:43:36;;;;;;;1.95;0.85;;;20.60;35.70;21.40;101914.00;;;;5015668;28;20037;-44
2023/11/26 01:46:12;;;;;;;1.25;0.65;;;20.60;35.70;21.40;101915.00;;;;5015645;28;20626;-44
2023/11/26 01:48:39;;;;;;;4.00;1.42;;;20.60;35.70;21.40;101918.00;;;;5023362;28;20038;-43
2023/11/26 01:51:10;;;;;;;2.38;0.82;;;20.60;35.80;21.40;101918.00;;;;4990799;28;20045;-42
2023/11/26 01:53:42;;;;;;;2.05;0.52;;;20.60;35.70;21.40;101919.00;;;;5006944;28;20476;-43
2023/11/26 01:56:09;;;;;;;1.48;0.90;;;20.60;35.70;21.40;101912.00;;;;5023588;28;20441;-43
2023/11/26 01:58:35;;;;;;;5.03;1.10;;;20.60;35.70;21.40;101915.00;;;;4998695;28;20038;-42
2023/11/26 02:01:01;;;;;;;1.90;0.52;;;20.60;35.70;21.40;101915.00;;;;5015937;28;20037;-42
2023/11/26 02:03:27;;;;;;;2.13;0.75;;;20.60;35.70;21.30;101915.00;;;;5015398;28;20072;-43
2023/11/26 02:05:53;;;;;;;1.13;0.70;;;20.60;35.70;21.40;101920.00;;;;5014780;28;20116;-43
2023/11/26 02:08:20;;;;;;;2.13;0.90;;;20.60;35.70;21.40;101917.00;;;;5015519;28;20041;-44
2023/11/26 02:10:46;;;;;;;0.73;0.50;;;20.60;35.80;21.30;101914.00;;;;5007364;28;20045;-44
2023/11/26 02:13:12;;;;;;;2.75;1.23;;;20.60;35.80;21.30;101921.00;;;;5015433;28;20044;-45
2023/11/26 02:15:38;;;;;;;1.33;0.60;;;20.60;35.80;21.30;101916.00;;;;5006985;28;20045;-44
2023/11/26 02:18:04;;;;;;;1.55;0.98;;;20.60;35.70;21.30;101918.00;;;;5016412;28;20521;-44
2023/11/26 02:20:34;;;;;;;1.10;0.35;;;20.60;35.80;21.30;101922.00;;;;5007672;28;20072;-44
2023/11/26 02:23:00;;;;;;;3.67;0.55;;;20.60;35.80;21.30;101920.00;;;;5015542;28;20048;-47
2023/11/26 02:25:30;;;;;;;3.05;0.60;;;20.60;35.80;21.30;101921.00;;;;5016654;28;20030;-47
2023/11/26 02:27:59;;;;;;;1.45;0.47;;;20.50;35.70;21.30;101921.00;;;;5031791;28;20383;-45
2023/11/26 02:30:26;;;;;;;3.38;0.75;;;20.50;35.70;21.30;101930.00;;;;5014920;28;20094;-45
2023/11/26 02:32:53;;;;;;;3.25;0.73;;;20.50;35.80;21.30;101931.00;;;;5006375;28;20044;-43
2023/11/26 02:35:19;;;;;;;1.95;0.70;;;20.50;35.70;21.30;101927.00;;;;4998298;28;20061;-43
2023/11/26 02:38:04;;;;;;;1.38;0.80;;;20.50;35.80;21.30;101919.00;;;;5015862;28;20038;-43
2023/11/26 02:40:30;;;;;;;1.85;1.05;;;20.50;35.80;21.30;101918.00;;;;5014691;28;20041;-43
2023/11/26 02:42:59;;;;;;;3.60;0.55;;;20.50;35.80;21.30;101916.00;;;;5015739;28;20076;-43
2023/11/26 02:45:25;;;;;;;2.08;0.75;;;20.50;35.80;21.30;101915.00;;;;5038552;28;20407;-42
2023/11/26 02:47:52;;;;;;;3.58;0.70;;;20.50;35.80;21.30;101920.00;;;;5014259;28;20069;-43
2023/11/26 02:50:18;;;;;;;1.75;0.32;;;20.50;35.80;21.30;101919.00;;;;5014211;28;20045;-43
2023/11/26 02:52:44;;;;;;;1.92;0.45;;;20.50;35.70;21.30;101920.00;;;;5014484;28;20054;-44
2023/11/26 02:55:10;;;;;;;1.33;0.57;;;20.50;35.80;21.30;101921.00;;;;5015578;28;20037;-43
2023/11/26 02:57:36;;;;;;;0.50;0.30;;;20.50;35.80;21.30;101920.00;;;;5014965;28;20064;-44
2023/11/26 03:00:15;;;;;;;3.70;0.52;;;20.50;35.80;21.30;101917.00;;;;5014872;28;20453;-46
2023/11/26 03:02:43;;;;;;;1.17;0.47;;;20.50;35.80;21.30;101911.00;;;;5020574;28;20374;-44
2023/11/26 03:05:17;;;;;;;1.80;0.40;;;20.50;35.80;21.30;101916.00;;;;5013911;28;20033;-44
2023/11/26 03:07:50;;;;;;;1.15;0.45;;;20.50;35.70;21.30;101916.00;;;;5016719;28;20033;-45
2023/11/26 03:13:12;;;;;;;0.90;0.30;;;20.50;35.80;21.20;101914.00;;;;5013825;28;20091;-44
2023/11/26 03:15:40;;;;;;;0.63;0.57;;;20.50;35.80;21.20;101909.00;;;;5014573;28;20545;-44
2023/11/26 03:18:12;;;;;;;1.25;0.30;;;20.50;35.80;21.20;101908.00;;;;5006257;28;20041;-44
2023/11/26 03:20:41;;;;;;;2.45;0.90;;;20.40;35.80;21.20;101906.00;;;;5013448;28;20573;-46
2023/11/26 03:23:09;;;;;;;1.40;0.55;;;20.50;35.80;21.20;101901.00;;;;5015429;28;20049;-44
2023/11/26 03:25:36;;;;;;;0.95;0.57;;;20.50;35.90;21.20;101906.00;;;;5015885;28;20037;-44
2023/11/26 03:28:06;;;;;;;1.52;1.05;;;20.50;35.90;21.20;101904.00;;;;5014943;28;20041;-45
2023/11/26 03:30:32;;;;;;;1.95;0.35;;;20.50;35.90;21.20;101911.00;;;;5030423;28;20148;-43
2023/11/26 03:32:58;;;;;;;1.92;0.40;;;20.40;35.80;21.20;101919.00;;;;5006247;28;20034;-43
2023/11/26 03:35:26;;;;;;;1.00;0.43;;;20.50;35.90;21.20;101910.00;;;;5012971;28;20059;-44
2023/11/26 03:37:54;;;;;;;2.80;0.95;;;20.50;35.90;21.20;101909.00;;;;5014941;28;20030;-43
2023/11/26 03:40:21;;;;;;;1.30;0.70;;;20.50;36.50;21.20;101902.00;;;;5014017;28;20389;-42
2023/11/26 03:42:47;;;;;;;1.38;0.63;;;20.40;35.80;21.20;101908.00;;;;5014292;28;20466;-42
2023/11/26 03:45:13;;;;;;;1.95;0.65;;;20.40;35.80;21.20;101908.00;;;;5015087;28;20034;-43
2023/11/26 03:47:39;;;;;;;1.15;0.93;;;20.40;35.80;21.20;101900.00;;;;5015254;28;20049;-45
2023/11/26 03:50:12;;;;;;;1.50;0.45;;;20.40;35.80;21.20;101896.00;;;;5022305;28;20045;-42
2023/11/26 03:52:40;;;;;;;1.20;0.70;;;20.40;35.80;21.20;101903.00;;;;5014646;28;20049;-42
2023/11/26 03:55:08;;;;;;;1.35;0.50;;;20.40;35.80;21.20;101907.00;;;;4997333;28;20061;-43
2023/11/26 03:57:53;;;;;;;0.85;0.50;;;20.40;35.80;21.20;101907.00;;;;5014286;28;20382;-43
2023/11/26 04:00:19;;;;;;;0.50;0.50;;;20.40;35.90;21.20;101908.00;;;;5014102;28;20062;-45
2023/11/26 04:02:45;;;;;;;1.48;0.50;;;20.40;35.80;21.20;101907.00;;;;5015175;28;20120;-43
2023/11/26 04:05:11;;;;;;;0.50;0.20;;;20.40;35.90;21.20;101901.00;;;;5014852;28;20058;-43
2023/11/26 04:07:37;;;;;;;1.55;0.30;;;20.40;35.80;21.20;101895.00;;;;5014777;28;20107;-42
2023/11/26 04:10:06;;;;;;;3.30;0.75;;;20.40;35.90;21.20;101912.00;;;;5014904;28;20084;-44
2023/11/26 04:12:33;;;;;;;1.77;0.88;;;20.40;35.80;21.20;101903.00;;;;5014636;28;20053;-45
2023/11/26 04:15:03;;;;;;;2.38;0.45;;;20.40;35.90;21.20;101904.00;;;;5037611;28;20037;-44
2023/11/26 04:17:30;;;;;;;0.70;0.30;;;20.40;35.90;21.20;101903.00;;;;5022482;28;20379;-44
2023/11/26 04:19:56;;;;;;;1.77;0.38;;;20.40;35.80;21.20;101901.00;;;;4998067;28;20103;-44
2023/11/26 04:22:23;;;;;;;4.30;0.85;;;20.40;35.90;21.20;101903.00;;;;5017554;28;20546;-44
2023/11/26 04:24:51;;;;;;;1.90;0.57;;;20.40;35.80;21.20;101902.00;;;;5017140;28;20140;-44
2023/11/26 04:27:23;;;;;;;2.70;0.40;;;20.40;35.90;21.20;101900.00;;;;5000686;28;20030;-44
2023/11/26 04:29:50;;;;;;;1.65;0.40;;;20.40;35.90;21.20;101895.00;;;;5025272;28;20061;-44
2023/11/26 04:32:16;;;;;;;0.30;0.25;;;20.40;35.90;21.20;101902.00;;;;5008911;28;20030;-46
2023/11/26 04:34:42;;;;;;;3.50;0.47;;;20.40;35.90;21.10;101901.00;;;;5019169;28;20041;-46
2023/11/26 04:37:09;;;;;;;1.33;1.05;;;20.30;35.80;21.10;101892.00;;;;5017987;28;20037;-44
2023/11/26 04:39:36;;;;;;;1.60;0.50;;;20.40;35.90;21.10;101897.00;;;;5017305;28;20034;-44
2023/11/26 04:42:02;;;;;;;0.30;0.30;;;20.40;35.90;21.10;101888.00;;;;5008569;28;20069;-47
2023/11/26 04:44:28;;;;;;;1.98;0.52;;;20.30;35.80;21.10;101898.00;;;;5017860;28;20544;-46
2023/11/26 04:46:54;;;;;;;0.85;0.50;;;20.40;35.90;21.10;101894.00;;;;5016837;28;20049;-43
2023/11/26 04:49:20;;;;;;;1.17;0.50;;;20.40;35.90;21.10;101897.00;;;;5017306;28;20095;-43
2023/11/26 04:51:47;;;;;;;4.40;0.28;;;20.30;35.90;21.10;101901.00;;;;5016528;28;20033;-43
2023/11/26 04:54:13;;;;;;;2.30;0.75;;;20.30;35.90;21.10;101898.00;;;;5017991;28;20034;-43
2023/11/26 04:56:40;;;;;;;2.70;0.68;;;20.30;35.90;21.10;101902.00;;;;5017559;28;20030;-44
2023/11/26 04:59:06;;;;;;;0.63;0.30;;;20.30;35.80;21.10;101891.00;;;;5017566;28;20044;-45
2023/11/26 05:01:35;;;;;;;1.58;1.05;;;20.30;35.90;21.10;101893.00;;;;5017555;28;20048;-46
2023/11/26 05:04:01;;;;;;;1.35;0.73;;;20.30;35.90;21.10;101897.00;;;;5033036;28;20033;-45
2023/11/26 05:06:27;;;;;;;2.08;0.55;;;20.30;36.40;21.10;101899.00;;;;5017485;28;20041;-45
2023/11/26 05:08:53;;;;;;;1.15;0.57;;;20.30;35.90;21.10;101894.00;;;;5017178;28;20041;-43
2023/11/26 05:11:20;;;;;;;1.90;1.05;;;20.30;35.90;21.10;101900.00;;;;5016284;28;20045;-44
2023/11/26 05:13:48;;;;;;;2.13;0.45;;;20.30;35.90;21.10;101894.00;;;;5016257;28;20076;-45
2023/11/26 05:16:15;;;;;;;1.05;0.47;;;20.30;35.90;21.10;101893.00;;;;5000062;28;20030;-43
2023/11/26 05:18:41;;;;;;;1.30;0.82;;;20.30;35.90;21.10;101889.00;;;;5018909;28;20045;-44
2023/11/26 05:21:09;;;;;;;1.75;0.50;;;20.30;35.90;21.10;101892.00;;;;5017242;28;20395;-42
2023/11/26 05:23:35;;;;;;;1.25;0.30;;;20.30;35.90;21.10;101892.00;;;;5018091;28;20057;-47
2023/11/26 05:26:02;;;;;;;1.88;0.35;;;20.30;35.90;21.10;101892.00;;;;5000343;28;20716;-42
2023/11/26 05:28:29;;;;;;;1.85;0.55;;;20.30;35.90;21.10;101894.00;;;;5007857;28;20103;-45
2023/11/26 05:30:55;;;;;;;1.60;0.60;;;20.30;35.90;21.10;101897.00;;;;5016490;28;20040;-45
2023/11/26 05:33:21;;;;;;;1.70;0.40;;;20.30;35.90;21.10;101893.00;;;;5016967;28;21370;-44
2023/11/26 05:35:47;;;;;;;1.48;0.40;;;20.30;36.60;21.10;101901.00;;;;5017147;28;20029;-44
2023/11/26 05:38:13;;;;;;;1.40;0.98;;;20.30;35.90;21.10;101896.00;;;;5016880;28;20040;-45
2023/11/26 05:40:39;;;;;;;1.20;0.40;;;20.30;35.90;21.10;101893.00;;;;5017566;28;20386;-45
2023/11/26 05:43:05;;;;;;;0.75;0.40;;;20.30;36.00;21.10;101893.00;;;;5017318;28;20088;-44
2023/11/26 05:45:31;;;;;;;1.60;0.43;;;20.30;36.00;21.10;101897.00;;;;5017459;28;20033;-44
2023/11/26 05:47:57;;;;;;;0.50;0.30;;;20.30;35.90;21.10;101895.00;;;;5016946;28;20051;-44
2023/11/26 05:50:23;;;;;;;1.65;0.40;;;20.30;36.00;21.10;101899.00;;;;5016319;28;20037;-45
2023/11/26 05:52:49;;;;;;;1.45;0.77;;;20.30;36.00;21.10;101891.00;;;;5016974;28;20059;-44
2023/11/26 05:55:20;;;;;;;1.00;0.75;;;20.30;36.00;21.00;101890.00;;;;5016910;28;20041;-45
2023/11/26 05:57:47;;;;;;;0.57;0.40;;;20.30;36.00;21.00;101886.00;;;;5015084;28;20486;-45
2023/11/26 06:00:15;;;;;;;4.07;0.60;;;20.30;35.90;21.00;101883.00;;;;5016111;28;20029;-45
2023/11/26 06:02:41;;;;;;;0.57;0.40;;;20.20;35.90;21.00;101887.00;;;;5016951;28;20533;-46
2023/11/26 06:05:08;;;;;;;1.70;0.40;;;20.30;35.90;21.00;101886.00;;;;5015838;28;20401;-45
2023/11/26 06:07:34;;;;;;;1.08;0.50;;;20.30;36.00;21.00;101884.00;;;;5016592;28;20038;-45
2023/11/26 06:10:00;;;;;;;1.80;0.57;;;20.20;35.90;21.00;101887.00;;;;5015435;28;20068;-44
2023/11/26 06:12:26;;;;;;;2.00;0.50;;;20.30;36.00;21.00;101882.00;;;;5016542;28;20127;-44
2023/11/26 06:14:52;;;;;;;1.85;0.40;;;20.30;36.00;21.00;101889.00;;;;5015129;28;20069;-45
2023/11/26 06:17:18;;;;;;;2.03;0.60;;;20.20;36.00;21.00;101892.00;;;;5015132;28;20037;-44
2023/11/26 06:19:44;;;;;;;0.60;0.55;;;20.30;36.00;21.00;101889.00;;;;5031436;28;20203;-44
2023/11/26 06:22:10;;;;;;;0.85;0.40;;;20.30;36.00;21.00;101893.00;;;;5015398;28;20501;-44
2023/11/26 06:24:36;;;;;;;1.35;0.47;;;20.20;36.00;21.00;101897.00;;;;5015887;28;20033;-45
2023/11/26 06:27:02;;;;;;;1.52;0.40;;;20.30;36.00;21.00;101899.00;;;;5016003;28;20041;-45
2023/11/26 06:29:28;;;;;;;2.70;0.88;;;20.20;36.00;21.00;101897.00;;;;5014928;28;20103;-45
2023/11/26 06:31:54;;;;;;;2.83;1.05;;;20.20;36.00;21.00;101898.00;;;;5014358;28;20041;-46
2023/11/26 06:34:25;;;;;;;0.98;0.55;;;20.20;36.00;21.00;101899.00;;;;5015482;28;20466;-44
2023/11/26 06:36:53;;;;;;;1.15;0.40;;;20.20;36.00;21.00;101898.00;;;;5015650;28;20434;-44
2023/11/26 06:39:19;;;;;;;1.33;0.30;;;20.20;36.00;21.00;101898.00;;;;5015531;28;20057;-44
2023/11/26 06:41:45;;;;;;;0.70;0.50;;;20.20;35.90;21.00;101903.00;;;;5014900;28;20121;-43
2023/11/26 06:44:11;;;;;;;1.85;0.30;;;20.20;36.00;21.00;101900.00;;;;5015256;28;20140;-47
2023/11/26 06:46:37;;;;;;;1.98;0.30;;;20.20;36.00;21.00;101903.00;;;;4999198;28;20050;-45
2023/11/26 06:49:03;;;;;;;2.20;0.50;;;20.20;36.00;21.00;101895.00;;;;5015394;28;20042;-42
2023/11/26 06:51:29;;;;;;;0.95;0.40;;;20.20;36.00;21.00;101902.00;;;;5015879;28;20139;-42
2023/11/26 06:53:55;;;;;;;1.33;0.57;;;20.20;36.00;21.00;101896.00;;;;4998118;28;20045;-43
2023/11/26 06:56:21;;;;;;;2.28;0.68;;;20.20;36.00;21.00;101901.00;;;;5014716;28;20128;-42
2023/11/26 06:58:47;;;;;;;2.38;0.60;;;20.20;36.00;21.00;101889.00;;;;5015052;28;20124;-42
2023/11/26 07:01:14;;;;;;;0.40;0.20;;;20.20;36.00;21.00;101893.00;;;;5014989;28;20176;-46
2023/11/26 07:03:40;;;;;;;4.53;0.43;;;20.20;36.10;21.00;101893.00;;;;5014442;28;20033;-44
2023/11/26 07:06:11;;;;;;;2.03;0.65;;;20.20;36.00;21.00;101900.00;;;;5014101;28;20083;-44
2023/11/26 07:08:39;;;;;;;1.67;0.68;;;20.20;36.00;21.00;101896.00;;;;5005794;28;20033;-43
2023/11/26 07:11:06;;;;;;;1.15;0.40;;;20.20;36.10;21.00;101893.00;;;;5015936;28;20084;-43
2023/11/26 07:13:35;;;;;;;1.00;0.40;;;20.20;36.00;21.00;101899.00;;;;5014960;28;20037;-43
2023/11/26 07:16:06;;;;;;;2.17;0.30;;;20.20;36.00;21.00;101894.00;;;;5015184;28;20121;-44
2023/11/26 07:18:33;;;;;;;1.85;0.40;;;20.20;36.00;21.00;101894.00;;;;5015393;28;20034;-44
2023/11/26 07:21:00;;;;;;;2.17;0.40;;;20.20;36.00;21.00;101890.00;;;;5014610;28;20044;-43
2023/11/26 07:23:26;;;;;;;1.33;0.57;;;20.20;36.00;21.00;101893.00;;;;5014827;28;20033;-42
2023/11/26 07:25:52;;;;;;;2.67;0.50;;;20.20;36.10;21.00;101889.00;;;;5014663;28;20551;-44
2023/11/26 07:28:18;;;;;;;1.60;0.60;;;20.20;36.00;21.00;101899.00;;;;5005993;28;20033;-42
2023/11/26 07:30:45;;;;;;;0.90;0.40;;;20.20;36.00;21.00;101891.00;;;;5015797;28;20044;-43
2023/11/26 07:33:11;;;;;;;3.15;0.95;;;20.20;36.00;21.00;101893.00;;;;5014460;28;20045;-45
2023/11/26 07:35:37;;;;;;;1.58;0.85;;;20.20;36.00;21.00;101896.00;;;;5014218;28;20060;-44
2023/11/26 07:38:04;;;;;;;0.63;0.20;;;20.20;36.10;21.00;101898.00;;;;5014441;28;20038;-42
2023/11/26 07:40:33;;;;;;;0.60;0.20;;;20.20;36.10;21.00;101900.00;;;;5013932;28;20037;-43
2023/11/26 07:43:00;;;;;;;1.48;0.35;;;20.20;36.10;21.00;101893.00;;;;5015680;28;20760;-45
2023/11/26 07:45:28;;;;;;;2.33;0.40;;;20.20;36.10;21.00;101903.00;;;;5013977;28;20170;-43
2023/11/26 07:47:54;;;;;;;1.55;0.35;;;20.20;36.00;21.00;101906.00;;;;5014883;28;20455;-43
2023/11/26 07:50:22;;;;;;;1.00;0.35;;;20.10;36.00;21.00;101902.00;;;;5015090;28;20030;-43
2023/11/26 07:52:48;;;;;;;1.00;0.52;;;20.20;36.10;21.00;101910.00;;;;5014670;28;20073;-43
2023/11/26 07:55:14;;;;;;;3.08;0.80;;;20.20;36.10;21.00;101904.00;;;;5013442;28;20062;-43
2023/11/26 07:57:42;;;;;;;4.47;0.88;;;20.20;36.00;21.00;101914.00;;;;5017774;28;20542;-43
2023/11/26 08:00:09;;;;;;;0.82;0.82;;;20.20;36.00;21.00;101917.00;;;;5032939;28;20759;-46
2023/11/26 08:02:41;;;;;;;1.27;0.68;;;20.30;36.00;21.10;101910.00;;;;5018677;28;20044;-46
2023/11/26 08:05:10;;;;;;;1.55;0.93;;;20.30;35.90;21.30;101908.00;;;;5017361;28;20494;-42
2023/11/26 08:07:36;;;;;;;0.85;0.60;;;20.40;35.90;21.60;101917.00;;;;5026040;28;20674;-42
2023/11/26 08:10:10;;;;;;;2.90;1.13;;;20.60;35.90;22.00;101917.00;;;;5009315;28;20049;-42
2023/11/26 08:12:38;;;;;;;1.60;1.48;;;20.80;35.80;22.30;101919.00;;;;5017613;28;20033;-42
2023/11/26 08:15:13;;;;;;;1.73;0.47;;;21.10;35.50;22.80;101914.00;;;;5018184;28;20367;-43
2023/11/26 08:17:39;;;;;;;0.73;0.30;;;21.40;35.20;23.10;101911.00;;;;5019114;28;20230;-43
2023/11/26 08:20:11;;;;;;;0.82;0.70;;;21.70;34.90;23.30;101908.00;;;;5017079;28;20359;-43
2023/11/26 08:22:40;;;;;;;2.22;0.73;;;21.90;34.60;23.60;101908.00;;;;5017746;28;20420;-44
2023/11/26 08:25:12;;;;;;;2.05;0.50;;;22.20;34.30;23.80;101910.00;;;;5017229;28;20200;-43
2023/11/26 08:27:45;;;;;;;1.50;0.25;;;22.30;34.00;24.00;101908.00;;;;5017291;28;20030;-42
2023/11/26 08:33:02;;;;;;;4.65;0.82;;;22.70;33.60;24.30;101909.00;;;;5016801;28;20045;-44
2023/11/26 08:35:32;;;;;;;1.55;0.47;;;22.90;33.40;24.40;101920.00;;;;5017281;28;20091;-44
2023/11/26 08:38:17;;;;;;;0.40;0.32;;;23.00;33.20;24.60;101913.00;;;;5018277;28;20112;-45
2023/11/26 08:40:43;;;;;;;1.88;0.35;;;23.20;33.10;24.60;101914.00;;;;5015640;28;20092;-45
2023/11/26 08:43:13;;;;;;;2.03;1.27;;;23.30;32.90;24.70;101917.00;;;;5017841;28;20458;-44
2023/11/26 08:45:42;;;;;;;0.75;0.60;;;23.40;32.70;24.80;101921.00;;;;5017205;28;20120;-46
2023/11/26 08:48:13;;;;;;;2.20;0.88;;;23.50;32.60;24.90;101923.00;;;;5007636;28;20740;-45
2023/11/26 08:50:40;;;;;;;2.35;0.88;;;23.60;32.40;24.90;101922.00;;;;5024351;28;20033;-43
2023/11/26 08:53:09;;;;;;;1.25;0.70;;;23.70;32.30;25.00;101912.00;;;;5016838;28;20124;-42
2023/11/26 08:55:38;;;;;;;2.15;0.80;;;23.70;32.20;25.00;101907.00;;;;5015247;28;20041;-42
2023/11/26 08:58:04;;;;;;;0.98;0.77;;;23.80;32.10;25.10;101907.00;;;;5016368;28;20451;-44
2023/11/26 09:00:30;;;;;;;1.45;0.70;;;23.90;32.00;25.10;101911.00;;;;5017161;28;20042;-43
2023/11/26 09:02:56;;;;;;;3.30;1.02;;;24.00;31.90;25.20;101911.00;;;;5032476;28;20033;-43
2023/11/26 09:05:23;;;;;;;2.20;0.68;;;24.00;31.80;25.20;101906.00;;;;5015344;28;20116;-43
2023/11/26 09:07:49;;;;;;;1.50;0.95;;;24.10;31.80;25.20;101903.00;;;;5015833;28;20120;-42
2023/11/26 09:10:19;;;;;;;1.75;0.60;;;24.10;31.70;25.30;101916.00;;;;5017294;28;20199;-42
2023/11/26 09:12:45;;;;;;;1.58;0.73;;;24.20;31.60;25.30;101908.00;;;;5016071;28;20033;-43
2023/11/26 09:15:12;;;;;;;4.38;0.80;;;24.30;31.50;25.40;101911.00;;;;4984156;28;20037;-43
2023/11/26 09:17:38;;;;;;;0.60;0.45;;;24.30;31.40;25.40;101912.00;;;;5018126;28;20123;-43
2023/11/26 09:20:15;;;;;;;3.30;0.95;;;24.40;31.40;25.20;101916.00;;;;5016291;28;20038;-45
2023/11/26 09:23:00;;;;;;;1.60;0.55;;;24.30;31.40;24.80;101915.00;;;;5016216;28;20029;-43
2023/11/26 09:25:27;;;;;;;4.07;1.27;;;24.00;31.50;24.50;101919.00;;;;5017180;28;20034;-47
2023/11/26 09:27:53;;;;;;;2.35;1.13;;;23.80;31.70;24.30;101930.00;;;;5016379;28;20433;-42
2023/11/26 09:30:19;;;;;;;3.72;1.35;;;23.60;31.90;24.10;101929.00;;;;5017414;28;20045;-43
2023/11/26 09:32:45;;;;;;;1.52;0.95;;;23.40;32.10;23.90;101938.00;;;;5000145;28;20394;-44
2023/11/26 09:35:11;;;;;;;1.42;0.82;;;23.30;32.30;23.80;101926.00;;;;5016601;28;20037;-42
2023/11/26 09:37:37;;;;;;;2.90;1.23;;;23.10;32.40;23.60;101930.00;;;;5017586;28;20179;-43
2023/11/26 09:40:03;;;;;;;2.05;1.00;;;23.00;32.50;23.50;101939.00;;;;5018281;28;20033;-43
2023/11/26 09:42:30;;;;;;;3.03;1.35;;;22.90;32.70;23.40;101933.00;;;;5015457;28;20513;-43
2023/11/26 09:44:56;;;;;;;3.65;1.80;;;22.80;32.80;23.30;101940.00;;;;5016446;28;20042;-43
2023/11/26 09:47:22;;;;;;;3.78;1.20;;;22.70;32.90;23.20;101938.00;;;;5015895;28;20033;-46
2023/11/26 09:49:51;;;;;;;2.00;0.98;;;22.60;33.10;23.10;101937.00;;;;5033629;28;20784;-44
2023/11/26 09:52:19;;;;;;;2.97;0.82;;;22.50;33.00;23.00;101936.00;;;;5016044;28;20049;-43
2023/11/26 09:54:45;;;;;;;1.58;0.70;;;22.40;33.10;22.90;101942.00;;;;5015629;28;20482;-45
2023/11/26 09:57:11;;;;;;;2.65;1.02;;;22.30;33.20;22.90;101932.00;;;;4999498;28;20113;-43
2023/11/26 09:59:37;;;;;;;2.60;0.93;;;22.30;33.40;22.80;101936.00;;;;5016369;28;20045;-43
2023/11/26 10:02:09;;;;;;;1.77;1.27;;;22.20;33.40;22.70;101927.00;;;;5016624;28;20133;-43
2023/11/26 10:04:50;;;;;;;1.33;0.63;;;22.20;33.50;22.70;101921.00;;;;5016937;28;20029;-42
2023/11/26 10:07:31;;;;;;;1.38;0.68;;;22.10;33.60;22.60;101917.00;;;;5015626;28;20038;-46
2023/11/26 10:10:12;;;;;;;2.33;0.65;;;22.00;33.60;22.60;101911.00;;;;5016764;28;20525;-46
2023/11/26 10:13:03;;;;;;;1.48;1.02;;;22.00;33.70;22.50;101912.00;;;;5015251;28;20425;-44
2023/11/26 10:15:35;;;;;;;1.60;1.48;;;21.90;33.60;22.40;101913.00;;;;5015391;28;20798;-43
2023/11/26 10:18:09;;;;;;;4.40;1.60;;;21.90;33.80;22.40;101906.00;;;;5016316;28;20038;-43
2023/11/26 10:20:45;;;;;;;2.05;0.90;;;21.80;33.80;22.40;101914.00;;;;5014134;28;20042;-45
2023/11/26 10:23:14;;;;;;;2.92;1.15;;;21.80;34.40;22.30;101904.00;;;;5015822;28;20052;-44
2023/11/26 10:25:46;;;;;;;1.02;0.90;;;21.70;34.00;22.30;101914.00;;;;5015905;28;20037;-45
2023/11/26 10:28:16;;;;;;;2.53;1.27;;;21.70;34.00;22.20;101907.00;;;;5014806;28;20541;-44
2023/11/26 10:30:43;;;;;;;3.42;0.95;;;21.60;34.00;22.20;101901.00;;;;5015804;28;20056;-44
2023/11/26 10:33:11;;;;;;;1.92;1.75;;;21.60;34.00;22.20;101908.00;;;;5016368;28;20125;-44
2023/11/26 10:35:50;;;;;;;1.50;0.95;;;21.60;34.00;22.10;101901.00;;;;5015928;28;20108;-43
2023/11/26 10:38:19;;;;;;;1.83;1.10;;;21.60;34.00;22.10;101901.00;;;;5016511;28;20046;-44
2023/11/26 10:40:46;;;;;;;4.82;1.85;;;21.50;34.10;22.10;101883.00;;;;5022074;28;20112;-44
2023/11/26 10:43:12;;;;;;;1.58;1.48;;;21.40;34.20;22.10;101887.00;;;;5015170;28;20478;-44
2023/11/26 10:45:42;;;;;;;2.35;1.67;;;21.40;34.20;22.10;101886.00;;;;5016663;28;20042;-43
2023/11/26 10:48:10;;;;;;;2.35;2.00;;;21.40;34.20;22.10;101884.00;;;;5016048;28;20037;-44
2023/11/26 10:51:02;;;;;;;5.50;1.95;;;21.40;34.30;22.10;101881.00;;;;5017042;28;20044;-46
2023/11/26 10:54:00;;;;;;;3.50;1.90;;;21.40;34.30;22.10;101888.00;;;;5013413;28;20045;-44
2023/11/26 10:56:39;;;;;;;2.83;1.73;;;21.40;34.30;22.00;101889.00;;;;5016720;28;20577;-47